Terminal Aerodrome Forecast
Issued by NWS Wilmington, OH

Current Version | Previous Version | Text Only | Print | Product List | Glossary Off
Versions: 1 2 3 4 5 6 7 8 9 10 11 12 13 14 15 16 17 18 19 20 21 22

000
FTUS41 KILN 162300
TAFDAY
TAF
KDAY 162325Z 1700/1724 01003KT P6SM OVC035
     FM170600 VRB03KT 4SM BR FEW035
     FM170800 VRB03KT 2SM BR FEW035
      TEMPO 1709/1712 1/2SM FG
     FM171300 VRB03KT 4SM BR FEW035
     FM171400 VRB03KT P6SM SCT035
     FM171600 26004KT P6SM BKN035
     FM172300 34004KT P6SM BKN120=

USA.gov is the U.S. government's official web portal to all federal, state and local government web resources and services.